sensor_id;sensor_type;location;lat;lon;timestamp;pressure;altitude;pressure_sealevel;temperature;humidity
2188;BME280;1100;52.014;8.540;2023-02-10T00:00:50;101977.56;;;0.85;78.78
2188;BME280;1100;52.014;8.540;2023-02-10T00:03:15;101974.81;;;0.85;78.54
2188;BME280;1100;52.014;8.540;2023-02-10T00:05:41;101976.41;;;0.86;78.95
2188;BME280;1100;52.014;8.540;2023-02-10T00:08:06;101970.94;;;0.86;78.88
2188;BME280;1100;52.014;8.540;2023-02-10T00:10:31;101979.16;;;0.86;78.77
2188;BME280;1100;52.014;8.540;2023-02-10T00:12:57;101975.31;;;0.88;78.83
2188;BME280;1100;52.014;8.540;2023-02-10T00:15:22;101980.28;;;0.85;78.81
2188;BME280;1100;52.014;8.540;2023-02-10T00:17:47;101980.28;;;0.85;79.05
2188;BME280;1100;52.014;8.540;2023-02-10T00:20:13;101984.94;;;0.85;79.11
2188;BME280;1100;52.014;8.540;2023-02-10T00:22:38;101979.81;;;0.83;79.08
2188;BME280;1100;52.014;8.540;2023-02-10T00:25:03;101978.69;;;0.84;78.86
2188;BME280;1100;52.014;8.540;2023-02-10T00:27:29;101983.50;;;0.88;79.10
2188;BME280;1100;52.014;8.540;2023-02-10T00:29:54;101985.94;;;0.89;79.01
2188;BME280;1100;52.014;8.540;2023-02-10T00:32:20;101985.13;;;0.89;79.17
2188;BME280;1100;52.014;8.540;2023-02-10T00:34:45;101977.22;;;0.87;79.24
2188;BME280;1100;52.014;8.540;2023-02-10T00:37:11;101979.63;;;0.89;79.29
2188;BME280;1100;52.014;8.540;2023-02-10T00:39:36;101975.75;;;0.90;79.37
2188;BME280;1100;52.014;8.540;2023-02-10T00:42:02;101984.78;;;0.90;79.35
2188;BME280;1100;52.014;8.540;2023-02-10T00:44:27;101988.03;;;0.92;79.14
2188;BME280;1100;52.014;8.540;2023-02-10T00:46:52;101998.31;;;0.95;79.43
2188;BME280;1100;52.014;8.540;2023-02-10T00:49:18;101992.53;;;0.97;79.47
2188;BME280;1100;52.014;8.540;2023-02-10T00:51:43;101992.53;;;0.97;79.38
2188;BME280;1100;52.014;8.540;2023-02-10T00:54:11;102000.41;;;0.98;79.51
2188;BME280;1100;52.014;8.540;2023-02-10T00:56:37;101999.59;;;0.98;79.55
2188;BME280;1100;52.014;8.540;2023-02-10T00:59:02;102004.41;;;1.01;79.31
2188;BME280;1100;52.014;8.540;2023-02-10T01:01:27;102008.63;;;0.98;79.68
2188;BME280;1100;52.014;8.540;2023-02-10T01:03:53;102017.63;;;0.99;79.62
2188;BME280;1100;52.014;8.540;2023-02-10T01:06:18;102007.00;;;0.97;79.67
2188;BME280;1100;52.014;8.540;2023-02-10T01:08:44;102028.59;;;0.99;79.70
2188;BME280;1100;52.014;8.540;2023-02-10T01:11:11;102019.91;;;0.97;79.60
2188;BME280;1100;52.014;8.540;2023-02-10T01:13:38;102011.69;;;0.97;79.70
2188;BME280;1100;52.014;8.540;2023-02-10T01:16:09;102010.53;;;0.98;79.77
2188;BME280;1100;52.014;8.540;2023-02-10T01:18:35;102012.16;;;0.99;79.98
2188;BME280;1100;52.014;8.540;2023-02-10T01:21:08;101998.44;;;0.99;79.86
2188;BME280;1100;52.014;8.540;2023-02-10T01:23:34;102018.44;;;0.99;79.82
2188;BME280;1100;52.014;8.540;2023-02-10T01:26:00;102013.63;;;0.96;79.82
2188;BME280;1100;52.014;8.540;2023-02-10T01:28:25;102016.03;;;0.98;79.92
2188;BME280;1100;52.014;8.540;2023-02-10T01:30:51;102012.47;;;0.97;80.08
2188;BME280;1100;52.014;8.540;2023-02-10T01:33:16;102016.19;;;1.02;80.03
2188;BME280;1100;52.014;8.540;2023-02-10T01:35:41;102023.59;;;1.01;80.07
2188;BME280;1100;52.014;8.540;2023-02-10T01:38:06;102023.25;;;1.03;80.21
2188;BME280;1100;52.014;8.540;2023-02-10T01:40:32;102021.34;;;1.03;80.27
2188;BME280;1100;52.014;8.540;2023-02-10T01:42:57;102017.47;;;1.04;80.28
2188;BME280;1100;52.014;8.540;2023-02-10T01:45:32;102004.09;;;1.03;80.25
2188;BME280;1100;52.014;8.540;2023-02-10T01:47:59;102010.53;;;0.98;80.04
2188;BME280;1100;52.014;8.540;2023-02-10T01:50:34;102007.19;;;0.92;79.98
2188;BME280;1100;52.014;8.540;2023-02-10T01:53:01;102012.81;;;0.87;80.01
2188;BME280;1100;52.014;8.540;2023-02-10T01:55:31;102010.75;;;0.84;80.44
2188;BME280;1100;52.014;8.540;2023-02-10T01:58:01;102008.47;;;0.77;80.31
2188;BME280;1100;52.014;8.540;2023-02-10T02:00:29;102009.44;;;0.72;80.27
2188;BME280;1100;52.014;8.540;2023-02-10T02:02:54;102019.28;;;0.65;80.09
2188;BME280;1100;52.014;8.540;2023-02-10T02:05:34;102015.09;;;0.58;80.40
2188;BME280;1100;52.014;8.540;2023-02-10T02:24:14;102015.75;;;0.38;80.83
2188;BME280;1100;52.014;8.540;2023-02-10T02:32:20;102022.34;;;0.28;80.65
2188;BME280;1100;52.014;8.540;2023-02-10T02:34:50;102018.16;;;0.21;81.08
2188;BME280;1100;52.014;8.540;2023-02-10T02:37:24;102017.00;;;0.22;81.14
2188;BME280;1100;52.014;8.540;2023-02-10T02:39:53;102008.66;;;0.19;81.13
2188;BME280;1100;52.014;8.540;2023-02-10T02:42:22;102022.34;;;0.19;80.86
2188;BME280;1100;52.014;8.540;2023-02-10T02:44:52;102024.91;;;0.24;81.46
2188;BME280;1100;52.014;8.540;2023-02-10T02:50:45;102012.69;;;0.30;81.66
2188;BME280;1100;52.014;8.540;2023-02-10T02:59:01;102022.38;;;0.45;81.76
2188;BME280;1100;52.014;8.540;2023-02-10T03:01:34;102019.63;;;0.45;81.98
2188;BME280;1100;52.014;8.540;2023-02-10T03:04:00;102033.44;;;0.49;82.00
2188;BME280;1100;52.014;8.540;2023-02-10T03:06:28;102023.16;;;0.55;81.97
2188;BME280;1100;52.014;8.540;2023-02-10T03:08:54;102022.97;;;0.60;82.36
2188;BME280;1100;52.014;8.540;2023-02-10T03:11:19;102015.75;;;0.64;82.24
2188;BME280;1100;52.014;8.540;2023-02-10T03:13:45;102004.63;;;0.69;82.60
2188;BME280;1100;52.014;8.540;2023-02-10T03:16:10;102013.50;;;0.75;82.85
2188;BME280;1100;52.014;8.540;2023-02-10T03:18:36;102008.16;;;0.79;82.99
2188;BME280;1100;52.014;8.540;2023-02-10T03:21:01;102018.63;;;0.85;83.13
2188;BME280;1100;52.014;8.540;2023-02-10T03:23:27;101995.41;;;0.92;83.12
2188;BME280;1100;52.014;8.540;2023-02-10T03:25:52;101997.84;;;0.93;83.36
2188;BME280;1100;52.014;8.540;2023-02-10T03:28:18;101998.44;;;0.99;83.41
2188;BME280;1100;52.014;8.540;2023-02-10T03:30:43;101993.47;;;1.01;83.29
2188;BME280;1100;52.014;8.540;2023-02-10T03:33:14;101992.97;;;0.99;83.19
2188;BME280;1100;52.014;8.540;2023-02-10T03:35:41;101993.63;;;1.05;83.65
2188;BME280;1100;52.014;8.540;2023-02-10T03:38:07;101991.84;;;1.09;83.35
2188;BME280;1100;52.014;8.540;2023-02-10T03:40:32;102004.06;;;1.11;83.47
2188;BME280;1100;52.014;8.540;2023-02-10T03:42:57;101995.84;;;1.11;83.84
2188;BME280;1100;52.014;8.540;2023-02-10T03:45:23;102015.19;;;1.15;83.78
2188;BME280;1100;52.014;8.540;2023-02-10T03:47:48;102008.75;;;1.11;83.50
2188;BME280;1100;52.014;8.540;2023-02-10T03:50:13;102006.81;;;1.11;84.18
2188;BME280;1100;52.014;8.540;2023-02-10T03:52:39;102001.97;;;1.08;83.83
2188;BME280;1100;52.014;8.540;2023-02-10T03:55:04;102009.72;;;1.06;84.00
2188;BME280;1100;52.014;8.540;2023-02-10T03:57:30;102007.00;;;1.06;83.80
2188;BME280;1100;52.014;8.540;2023-02-10T03:59:55;102013.13;;;1.03;84.03
2188;BME280;1100;52.014;8.540;2023-02-10T04:02:21;102016.31;;;1.05;84.44
2188;BME280;1100;52.014;8.540;2023-02-10T04:04:46;102008.91;;;1.06;84.63
2188;BME280;1100;52.014;8.540;2023-02-10T04:07:11;102008.91;;;1.06;84.34
2188;BME280;1100;52.014;8.540;2023-02-10T04:09:37;102002.63;;;1.05;84.42
2188;BME280;1100;52.014;8.540;2023-02-10T04:12:02;102003.44;;;1.06;84.41
2188;BME280;1100;52.014;8.540;2023-02-10T04:14:27;102025.03;;;1.07;84.72
2188;BME280;1100;52.014;8.540;2023-02-10T04:16:53;102013.75;;;1.09;85.12
2188;BME280;1100;52.014;8.540;2023-02-10T04:19:18;102014.06;;;1.07;84.84
2188;BME280;1100;52.014;8.540;2023-02-10T04:21:43;102024.53;;;1.05;85.03
2188;BME280;1100;52.014;8.540;2023-02-10T04:24:09;102030.84;;;1.06;84.94
2188;BME280;1100;52.014;8.540;2023-02-10T04:26:34;102015.22;;;1.06;85.17
2188;BME280;1100;52.014;8.540;2023-02-10T04:28:59;102029.22;;;1.05;85.21
2188;BME280;1100;52.014;8.540;2023-02-10T04:31:24;102024.09;;;1.03;85.31
2188;BME280;1100;52.014;8.540;2023-02-10T04:33:50;102017.94;;;1.06;85.37
2188;BME280;1100;52.014;8.540;2023-02-10T04:36:15;102015.53;;;1.05;85.20
2188;BME280;1100;52.014;8.540;2023-02-10T04:38:41;102012.31;;;1.03;85.20
2188;BME280;1100;52.014;8.540;2023-02-10T04:41:06;102012.16;;;0.99;85.27
2188;BME280;1100;52.014;8.540;2023-02-10T04:43:33;102017.16;;;0.97;85.42
2188;BME280;1100;52.014;8.540;2023-02-10T04:46:01;102024.06;;;0.94;85.39
2188;BME280;1100;52.014;8.540;2023-02-10T04:48:28;102019.56;;;0.90;85.29
2188;BME280;1100;52.014;8.540;2023-02-10T04:50:53;102018.78;;;0.89;85.40
2188;BME280;1100;52.014;8.540;2023-02-10T04:53:19;102024.25;;;0.89;85.49
2188;BME280;1100;52.014;8.540;2023-02-10T04:55:44;102017.47;;;0.86;85.57
2188;BME280;1100;52.014;8.540;2023-02-10T04:58:10;102017.69;;;0.81;85.55
2188;BME280;1100;52.014;8.540;2023-02-10T05:00:35;102024.59;;;0.79;85.49
2188;BME280;1100;52.014;8.540;2023-02-10T05:03:01;102019.09;;;0.79;85.65
2188;BME280;1100;52.014;8.540;2023-02-10T05:05:26;102019.91;;;0.79;85.86
2188;BME280;1100;52.014;8.540;2023-02-10T05:07:52;102018.78;;;0.80;85.71
2188;BME280;1100;52.014;8.540;2023-02-10T05:10:18;102017.69;;;0.81;85.98
2188;BME280;1100;52.014;8.540;2023-02-10T05:12:43;102017.34;;;0.83;85.81
2188;BME280;1100;52.014;8.540;2023-02-10T05:15:09;102013.78;;;0.82;85.75
2188;BME280;1100;52.014;8.540;2023-02-10T05:17:34;102005.25;;;0.84;85.93
2188;BME280;1100;52.014;8.540;2023-02-10T05:20:00;102012.34;;;0.85;85.72
2188;BME280;1100;52.014;8.540;2023-02-10T05:22:25;102013.97;;;0.86;85.88
2188;BME280;1100;52.014;8.540;2023-02-10T05:24:55;102012.00;;;0.86;85.93
2188;BME280;1100;52.014;8.540;2023-02-10T05:27:22;102016.69;;;0.86;86.13
2188;BME280;1100;52.014;8.540;2023-02-10T05:29:47;102022.19;;;0.86;86.29
2188;BME280;1100;52.014;8.540;2023-02-10T05:32:13;102026.03;;;0.85;85.82
2188;BME280;1100;52.014;8.540;2023-02-10T05:34:38;102042.44;;;0.85;86.13
2188;BME280;1100;52.014;8.540;2023-02-10T05:37:03;102033.91;;;0.86;86.18
2188;BME280;1100;52.014;8.540;2023-02-10T05:39:28;102048.75;;;0.85;86.08
2188;BME280;1100;52.014;8.540;2023-02-10T05:41:56;102048.91;;;0.80;86.16
2188;BME280;1100;52.014;8.540;2023-02-10T05:44:23;102044.56;;;0.79;86.40
2188;BME280;1100;52.014;8.540;2023-02-10T05:46:49;102053.91;;;0.78;86.58
2188;BME280;1100;52.014;8.540;2023-02-10T05:49:15;102056.66;;;0.78;86.41
2188;BME280;1100;52.014;8.540;2023-02-10T05:51:41;102059.72;;;0.77;86.34
2188;BME280;1100;52.014;8.540;2023-02-10T05:54:07;102050.19;;;0.74;86.47
2188;BME280;1100;52.014;8.540;2023-02-10T05:56:32;102058.72;;;0.72;86.64
2188;BME280;1100;52.014;8.540;2023-02-10T05:58:58;102079.84;;;0.72;86.88
2188;BME280;1100;52.014;8.540;2023-02-10T06:01:24;102075.34;;;0.67;86.81
2188;BME280;1100;52.014;8.540;2023-02-10T06:03:49;102082.41;;;0.68;87.10
2188;BME280;1100;52.014;8.540;2023-02-10T06:06:15;102083.38;;;0.72;87.33
2188;BME280;1100;52.014;8.540;2023-02-10T06:08:40;102084.69;;;0.75;86.91
2188;BME280;1100;52.014;8.540;2023-02-10T06:11:05;102081.94;;;0.75;87.43
2188;BME280;1100;52.014;8.540;2023-02-10T06:13:31;102085.78;;;0.74;87.12
2188;BME280;1100;52.014;8.540;2023-02-10T06:15:56;102086.91;;;0.73;87.42
2188;BME280;1100;52.014;8.540;2023-02-10T06:18:22;102088.53;;;0.74;87.44
2188;BME280;1100;52.014;8.540;2023-02-10T06:20:47;102099.47;;;0.74;87.38
2188;BME280;1100;52.014;8.540;2023-02-10T06:23:13;102093.03;;;0.70;87.48
2188;BME280;1100;52.014;8.540;2023-02-10T06:25:39;102092.88;;;0.66;87.67
2188;BME280;1100;52.014;8.540;2023-02-10T06:28:04;102094.81;;;0.66;87.96
2188;BME280;1100;52.014;8.540;2023-02-10T06:30:30;102109.16;;;0.63;87.68
2188;BME280;1100;52.014;8.540;2023-02-10T06:32:55;102118.47;;;0.61;87.57
2188;BME280;1100;52.014;8.540;2023-02-10T06:35:21;102115.25;;;0.59;88.06
2188;BME280;1100;52.014;8.540;2023-02-10T06:37:46;102121.19;;;0.61;88.36
2188;BME280;1100;52.014;8.540;2023-02-10T06:40:11;102121.19;;;0.61;88.49
2188;BME280;1100;52.014;8.540;2023-02-10T06:42:38;102124.56;;;0.58;87.98
2188;BME280;1100;52.014;8.540;2023-02-10T06:45:03;102122.97;;;0.57;88.08
2188;BME280;1100;52.014;8.540;2023-02-10T06:47:29;102125.72;;;0.57;88.28
2188;BME280;1100;52.014;8.540;2023-02-10T06:49:54;102121.06;;;0.58;88.45
2188;BME280;1100;52.014;8.540;2023-02-10T06:52:20;102124.56;;;0.58;88.31
2188;BME280;1100;52.014;8.540;2023-02-10T06:54:46;102130.06;;;0.58;88.48
2188;BME280;1100;52.014;8.540;2023-02-10T06:57:11;102125.41;;;0.59;88.60
2188;BME280;1100;52.014;8.540;2023-02-10T06:59:37;102134.88;;;0.61;89.07
2188;BME280;1100;52.014;8.540;2023-02-10T07:02:02;102127.81;;;0.60;88.82
2188;BME280;1100;52.014;8.540;2023-02-10T07:04:30;102130.06;;;0.58;88.69
2188;BME280;1100;52.014;8.540;2023-02-10T07:06:56;102123.16;;;0.61;89.04
2188;BME280;1100;52.014;8.540;2023-02-10T07:09:22;102131.50;;;0.65;89.04
2188;BME280;1100;52.014;8.540;2023-02-10T07:11:47;102131.19;;;0.66;88.75
2188;BME280;1100;52.014;8.540;2023-02-10T07:14:13;102125.72;;;0.66;88.94
2188;BME280;1100;52.014;8.540;2023-02-10T07:16:38;102128.13;;;0.68;88.86
2188;BME280;1100;52.014;8.540;2023-02-10T07:19:03;102136.03;;;0.69;88.67
2188;BME280;1100;52.014;8.540;2023-02-10T07:21:29;102139.56;;;0.70;88.89
2188;BME280;1100;52.014;8.540;2023-02-10T07:23:54;102137.47;;;0.67;88.88
2188;BME280;1100;52.014;8.540;2023-02-10T07:26:19;102140.22;;;0.67;88.86
2188;BME280;1100;52.014;8.540;2023-02-10T07:28:45;102142.31;;;0.70;89.09
2188;BME280;1100;52.014;8.540;2023-02-10T07:31:11;102135.69;;;0.71;88.94
2188;BME280;1100;52.014;8.540;2023-02-10T07:33:36;102138.94;;;0.73;88.92
2188;BME280;1100;52.014;8.540;2023-02-10T07:36:03;102134.09;;;0.70;88.85
2188;BME280;1100;52.014;8.540;2023-02-10T07:38:30;102131.53;;;0.73;89.12
2188;BME280;1100;52.014;8.540;2023-02-10T07:40:56;102122.69;;;0.77;88.70
2188;BME280;1100;52.014;8.540;2023-02-10T07:43:21;102120.72;;;0.77;88.98
2188;BME280;1100;52.014;8.540;2023-02-10T07:45:46;102124.28;;;0.78;88.81
2188;BME280;1100;52.014;8.540;2023-02-10T07:48:12;102123.97;;;0.79;89.04
2188;BME280;1100;52.014;8.540;2023-02-10T07:50:37;102124.13;;;0.83;88.85
2188;BME280;1100;52.014;8.540;2023-02-10T07:53:03;102132.81;;;0.85;89.16
2188;BME280;1100;52.014;8.540;2023-02-10T07:55:28;102127.50;;;0.89;89.03
2188;BME280;1100;52.014;8.540;2023-02-10T07:57:53;102131.53;;;0.91;89.00
2188;BME280;1100;52.014;8.540;2023-02-10T08:00:19;102131.06;;;0.89;89.15
2188;BME280;1100;52.014;8.540;2023-02-10T08:02:44;102131.22;;;0.84;88.94
2188;BME280;1100;52.014;8.540;2023-02-10T08:05:09;102135.88;;;0.83;88.93
2188;BME280;1100;52.014;8.540;2023-02-10T08:07:36;102135.88;;;0.83;89.19
2188;BME280;1100;52.014;8.540;2023-02-10T08:10:02;102143.78;;;0.85;89.27
2188;BME280;1100;52.014;8.540;2023-02-10T08:12:27;102141.34;;;0.83;89.21
2188;BME280;1100;52.014;8.540;2023-02-10T08:14:53;102132.81;;;0.85;89.55
2188;BME280;1100;52.014;8.540;2023-02-10T08:17:18;102138.78;;;0.87;89.42
2188;BME280;1100;52.014;8.540;2023-02-10T08:19:43;102144.75;;;0.89;89.68
2188;BME280;1100;52.014;8.540;2023-02-10T08:22:09;102139.75;;;0.91;89.71
2188;BME280;1100;52.014;8.540;2023-02-10T08:24:34;102140.06;;;0.90;89.73
2188;BME280;1100;52.014;8.540;2023-02-10T08:27:00;102152.97;;;0.89;89.65
2188;BME280;1100;52.014;8.540;2023-02-10T08:29:25;102144.44;;;0.91;90.08
2188;BME280;1100;52.014;8.540;2023-02-10T08:31:51;102147.00;;;0.96;90.03
2188;BME280;1100;52.014;8.540;2023-02-10T08:34:19;102158.94;;;1.00;89.82
2188;BME280;1100;52.014;8.540;2023-02-10T08:36:45;102157.31;;;1.08;89.98
2188;BME280;1100;52.014;8.540;2023-02-10T08:39:12;102159.88;;;1.13;89.94
2188;BME280;1100;52.014;8.540;2023-02-10T08:41:38;102156.19;;;1.18;90.01
2188;BME280;1100;52.014;8.540;2023-02-10T08:44:04;102175.69;;;1.16;90.32
2188;BME280;1100;52.014;8.540;2023-02-10T08:46:29;102160.06;;;1.17;89.80
2188;BME280;1100;52.014;8.540;2023-02-10T08:48:55;102160.22;;;1.20;89.83
2188;BME280;1100;52.014;8.540;2023-02-10T08:51:20;102179.22;;;1.26;90.08
2188;BME280;1100;52.014;8.540;2023-02-10T08:53:46;102172.78;;;1.21;90.14
2188;BME280;1100;52.014;8.540;2023-02-10T08:56:15;102167.31;;;1.21;90.47
2188;BME280;1100;52.014;8.540;2023-02-10T08:58:41;102176.34;;;1.22;90.36
2188;BME280;1100;52.014;8.540;2023-02-10T09:01:11;102168.75;;;1.19;90.49
2188;BME280;1100;52.014;8.540;2023-02-10T09:03:37;102172.28;;;1.19;90.57
2188;BME280;1100;52.014;8.540;2023-02-10T09:06:03;102181.50;;;1.23;90.42
2188;BME280;1100;52.014;8.540;2023-02-10T09:08:29;102179.72;;;1.28;90.56
2188;BME280;1100;52.014;8.540;2023-02-10T09:10:54;102184.22;;;1.32;90.49
2188;BME280;1100;52.014;8.540;2023-02-10T09:13:20;102170.84;;;1.31;90.49
2188;BME280;1100;52.014;8.540;2023-02-10T09:15:46;102184.22;;;1.32;90.59
2188;BME280;1100;52.014;8.540;2023-02-10T09:18:12;102191.78;;;1.35;90.76
2188;BME280;1100;52.014;8.540;2023-02-10T09:20:37;102183.56;;;1.35;90.64
2188;BME280;1100;52.014;8.540;2023-02-10T09:23:03;102182.94;;;1.39;90.66
2188;BME280;1100;52.014;8.540;2023-02-10T09:25:28;102179.88;;;1.40;90.35
2188;BME280;1100;52.014;8.540;2023-02-10T09:27:54;102186.97;;;1.41;90.40
2188;BME280;1100;52.014;8.540;2023-02-10T09:30:23;102179.88;;;1.49;90.77
2188;BME280;1100;52.014;8.540;2023-02-10T09:32:49;102189.53;;;1.55;90.74
2188;BME280;1100;52.014;8.540;2023-02-10T09:35:14;102192.28;;;1.55;90.22
2188;BME280;1100;52.014;8.540;2023-02-10T09:37:39;102193.06;;;1.56;90.32
2188;BME280;1100;52.014;8.540;2023-02-10T09:40:05;102197.13;;;1.58;90.19
2188;BME280;1100;52.014;8.540;2023-02-10T09:45:25;102195.81;;;1.65;90.23
2188;BME280;1100;52.014;8.540;2023-02-10T09:47:56;102186.78;;;1.64;90.61
2188;BME280;1100;52.014;8.540;2023-02-10T09:53:16;102201.94;;;1.61;90.25
2188;BME280;1100;52.014;8.540;2023-02-10T09:55:51;102210.16;;;1.61;90.27
2188;BME280;1100;52.014;8.540;2023-02-10T10:01:05;102203.06;;;1.60;90.11
2188;BME280;1100;52.014;8.540;2023-02-10T10:03:59;102212.25;;;1.65;90.42
2188;BME280;1100;52.014;8.540;2023-02-10T10:06:31;102219.19;;;1.71;90.18
2188;BME280;1100;52.014;8.540;2023-02-10T10:14:04;102215.94;;;1.86;90.15
2188;BME280;1100;52.014;8.540;2023-02-10T10:22:00;102198.31;;;1.88;90.03
2188;BME280;1100;52.014;8.540;2023-02-10T10:34:40;102204.00;;;2.21;90.17
2188;BME280;1100;52.014;8.540;2023-02-10T10:37:16;102200.09;;;2.31;90.14
2188;BME280;1100;52.014;8.540;2023-02-10T10:39:45;102203.94;;;2.39;90.14
2188;BME280;1100;52.014;8.540;2023-02-10T10:42:43;102209.88;;;2.50;90.05
2188;BME280;1100;52.014;8.540;2023-02-10T10:45:19;102204.84;;;2.52;90.04
2188;BME280;1100;52.014;8.540;2023-02-10T10:48:00;102213.56;;;2.54;90.14
2188;BME280;1100;52.014;8.540;2023-02-10T10:50:29;102209.69;;;2.55;89.93
2188;BME280;1100;52.014;8.540;2023-02-10T10:52:57;102203.53;;;2.58;90.11
2188;BME280;1100;52.014;8.540;2023-02-10T10:55:38;102197.97;;;2.67;90.07
2188;BME280;1100;52.014;8.540;2023-02-10T10:58:23;102209.59;;;2.73;90.30
2188;BME280;1100;52.014;8.540;2023-02-10T11:01:08;102204.38;;;2.80;89.97
2188;BME280;1100;52.014;8.540;2023-02-10T11:03:34;102198.88;;;2.80;89.94
2188;BME280;1100;52.014;8.540;2023-02-10T11:06:05;102199.81;;;2.84;90.03
2188;BME280;1100;52.014;8.540;2023-02-10T11:08:52;102205.44;;;2.88;89.86
2188;BME280;1100;52.014;8.540;2023-02-10T11:11:18;102192.78;;;2.96;89.85
2188;BME280;1100;52.014;8.540;2023-02-10T11:13:54;102190.06;;;2.96;89.64
2188;BME280;1100;52.014;8.540;2023-02-10T11:16:20;102182.41;;;3.02;89.48
2188;BME280;1100;52.014;8.540;2023-02-10T11:18:56;102171.81;;;3.13;89.54
2188;BME280;1100;52.014;8.540;2023-02-10T11:21:33;102167.38;;;3.20;89.27
2188;BME280;1100;52.014;8.540;2023-02-10T11:23:59;102170.91;;;3.42;89.76
2188;BME280;1100;52.014;8.540;2023-02-10T11:26:26;102159.38;;;3.61;89.49
2188;BME280;1100;52.014;8.540;2023-02-10T11:28:53;102159.22;;;3.79;89.41
2188;BME280;1100;52.014;8.540;2023-02-10T11:33:58;102155.09;;;3.98;88.95
2188;BME280;1100;52.014;8.540;2023-02-10T11:36:37;102150.97;;;4.04;88.78
2188;BME280;1100;52.014;8.540;2023-02-10T11:39:28;102152.94;;;4.29;89.11
2188;BME280;1100;52.014;8.540;2023-02-10T11:41:55;102155.44;;;4.46;88.56
2188;BME280;1100;52.014;8.540;2023-02-10T11:44:30;102151.44;;;4.44;87.83
2188;BME280;1100;52.014;8.540;2023-02-10T11:47:01;102149.25;;;4.49;88.33
2188;BME280;1100;52.014;8.540;2023-02-10T11:49:29;102151.97;;;4.74;88.30
2188;BME280;1100;52.014;8.540;2023-02-10T11:51:57;102159.66;;;5.10;88.10
2188;BME280;1100;52.014;8.540;2023-02-10T11:54:24;102152.31;;;5.14;87.70
2188;BME280;1100;52.014;8.540;2023-02-10T11:57:00;102163.63;;;4.96;85.83
2188;BME280;1100;52.014;8.540;2023-02-10T11:59:59;102151.75;;;4.67;86.58
2188;BME280;1100;52.014;8.540;2023-02-10T12:05:52;102153.47;;;4.72;87.42
2188;BME280;1100;52.014;8.540;2023-02-10T12:08:27;102157.31;;;5.24;86.40
2188;BME280;1100;52.014;8.540;2023-02-10T12:11:08;102156.72;;;5.31;84.82
2188;BME280;1100;52.014;8.540;2023-02-10T12:13:48;102151.50;;;5.14;85.26
2188;BME280;1100;52.014;8.540;2023-02-10T12:19:41;102134.50;;;5.11;85.51
2188;BME280;1100;52.014;8.540;2023-02-10T12:25:19;102143.66;;;4.87;84.69
2188;BME280;1100;52.014;8.540;2023-02-10T12:39:05;102113.47;;;5.35;82.42
2188;BME280;1100;52.014;8.540;2023-02-10T12:41:48;102112.34;;;5.53;82.09
2188;BME280;1100;52.014;8.540;2023-02-10T12:50:07;102093.66;;;6.10;80.13
2188;BME280;1100;52.014;8.540;2023-02-10T12:52:50;102088.84;;;6.23;79.81
2188;BME280;1100;52.014;8.540;2023-02-10T12:55:23;102089.19;;;6.22;80.31
2188;BME280;1100;52.014;8.540;2023-02-10T12:57:52;102086.78;;;6.20;80.86
2188;BME280;1100;52.014;8.540;2023-02-10T13:00:39;102085.09;;;5.99;80.57
2188;BME280;1100;52.014;8.540;2023-02-10T13:03:15;102075.31;;;5.86;80.42
2188;BME280;1100;52.014;8.540;2023-02-10T13:05:49;102088.50;;;5.77;78.41
2188;BME280;1100;52.014;8.540;2023-02-10T13:08:24;102068.22;;;5.36;79.64
2188;BME280;1100;52.014;8.540;2023-02-10T13:10:58;102076.00;;;5.18;79.83
2188;BME280;1100;52.014;8.540;2023-02-10T13:13:28;102079.69;;;5.10;80.10
2188;BME280;1100;52.014;8.540;2023-02-10T13:16:00;102070.69;;;5.42;80.55
2188;BME280;1100;52.014;8.540;2023-02-10T13:18:32;102073.22;;;5.63;79.99
2188;BME280;1100;52.014;8.540;2023-02-10T13:21:11;102079.25;;;5.69;78.90
2188;BME280;1100;52.014;8.540;2023-02-10T13:26:14;102068.22;;;5.53;78.98
2188;BME280;1100;52.014;8.540;2023-02-10T13:34:28;102072.16;;;5.68;79.63
2188;BME280;1100;52.014;8.540;2023-02-10T13:37:05;102057.97;;;5.85;77.64
2188;BME280;1100;52.014;8.540;2023-02-10T13:39:33;102067.34;;;5.65;77.33
2188;BME280;1100;52.014;8.540;2023-02-10T13:44:34;102052.78;;;5.19;76.89
2188;BME280;1100;52.014;8.540;2023-02-10T13:52:27;102032.91;;;5.58;78.44
2188;BME280;1100;52.014;8.540;2023-02-10T13:57:39;102035.16;;;6.05;76.60
2188;BME280;1100;52.014;8.540;2023-02-10T14:00:26;102025.44;;;6.11;76.65
2188;BME280;1100;52.014;8.540;2023-02-10T14:13:44;102037.34;;;5.47;76.19
2188;BME280;1100;52.014;8.540;2023-02-10T14:19:00;102025.94;;;5.65;77.00
2188;BME280;1100;52.014;8.540;2023-02-10T14:21:37;102029.13;;;5.83;76.16
2188;BME280;1100;52.014;8.540;2023-02-10T14:24:03;102030.19;;;5.94;76.09
2188;BME280;1100;52.014;8.540;2023-02-10T14:26:35;102024.44;;;6.03;74.91
2188;BME280;1100;52.014;8.540;2023-02-10T14:29:01;102025.81;;;6.09;75.34
2188;BME280;1100;52.014;8.540;2023-02-10T14:31:29;102011.00;;;6.18;75.97
2188;BME280;1100;52.014;8.540;2023-02-10T14:33:59;102027.72;;;6.45;75.36
2188;BME280;1100;52.014;8.540;2023-02-10T14:36:26;102019.44;;;6.45;74.87
2188;BME280;1100;52.014;8.540;2023-02-10T14:38:57;102016.16;;;6.03;74.98
2188;BME280;1100;52.014;8.540;2023-02-10T14:41:25;102008.56;;;5.80;75.40
2188;BME280;1100;52.014;8.540;2023-02-10T14:43:51;102007.41;;;5.65;75.10
2188;BME280;1100;52.014;8.540;2023-02-10T14:46:21;101999.69;;;5.39;74.32
2188;BME280;1100;52.014;8.540;2023-02-10T14:48:48;102002.78;;;5.21;74.99
2188;BME280;1100;52.014;8.540;2023-02-10T14:51:22;102007.88;;;5.19;75.39
2188;BME280;1100;52.014;8.540;2023-02-10T14:53:48;102001.63;;;5.06;75.81
2188;BME280;1100;52.014;8.540;2023-02-10T14:56:17;102003.91;;;4.88;75.72
2188;BME280;1100;52.014;8.540;2023-02-10T14:58:43;101998.00;;;4.73;75.99
2188;BME280;1100;52.014;8.540;2023-02-10T15:01:29;102006.09;;;4.66;75.82
2188;BME280;1100;52.014;8.540;2023-02-10T15:03:56;102005.28;;;4.65;75.88
2188;BME280;1100;52.014;8.540;2023-02-10T15:06:25;102007.16;;;4.61;75.47
2188;BME280;1100;52.014;8.540;2023-02-10T15:08:59;101999.94;;;4.56;75.79
2188;BME280;1100;52.014;8.540;2023-02-10T15:11:31;101992.03;;;4.55;75.84
2188;BME280;1100;52.014;8.540;2023-02-10T15:14:22;101993.16;;;4.82;75.87
2188;BME280;1100;52.014;8.540;2023-02-10T15:16:49;101994.75;;;4.83;74.96
2188;BME280;1100;52.014;8.540;2023-02-10T15:19:17;101995.16;;;4.69;75.24
2188;BME280;1100;52.014;8.540;2023-02-10T15:21:43;101993.16;;;4.54;76.00
2188;BME280;1100;52.014;8.540;2023-02-10T15:24:39;101990.44;;;4.41;76.08
2188;BME280;1100;52.014;8.540;2023-02-10T15:27:15;101983.22;;;4.36;76.45
2188;BME280;1100;52.014;8.540;2023-02-10T15:29:41;101981.84;;;4.43;76.57